createdAt,value
2023-03-23T15:58:31.000Z,61.90
2023-03-23T15:59:31.000Z,61.69
2023-03-23T16:00:31.000Z,61.99
2023-03-23T16:01:31.000Z,62.19
2023-03-23T16:02:31.000Z,61.99
2023-03-23T16:03:31.000Z,61.79
2023-03-23T16:04:31.000Z,61.99
2023-03-23T16:05:31.000Z,61.99
2023-03-23T16:06:31.000Z,62.10
2023-03-23T16:07:31.000Z,62.23
2023-03-23T16:08:31.000Z,62.10
2023-03-23T16:09:31.000Z,62.30
2023-03-23T16:10:31.000Z,62.19
2023-03-23T16:11:31.000Z,62.40
2023-03-23T16:12:31.000Z,62.50
2023-03-23T16:13:31.000Z,62.50
2023-03-23T16:14:31.000Z,62.40
2023-03-23T16:15:31.000Z,62.19
2023-03-23T16:16:31.000Z,62.19
2023-03-23T16:17:31.000Z,62.50
2023-03-23T16:18:31.000Z,62.50
2023-03-23T16:19:31.000Z,62.70
2023-03-23T16:20:31.000Z,63.01
2023-03-23T16:21:31.000Z,63.21
2023-03-23T16:22:31.000Z,63.31
2023-03-23T16:23:31.000Z,63.41
2023-03-23T16:24:31.000Z,63.71
2023-03-23T16:25:31.000Z,63.61
2023-03-23T16:26:31.000Z,63.81
2023-03-23T16:27:31.000Z,63.95
2023-03-23T16:28:31.000Z,64.04
2023-03-23T16:29:31.000Z,64.04
2023-03-23T16:30:31.000Z,64.15
2023-03-23T16:31:31.000Z,63.95
2023-03-23T16:32:31.000Z,64.25
2023-03-23T16:33:31.000Z,64.45
2023-03-23T16:33:31.000Z,64.45
2023-03-23T16:34:31.000Z,64.48
2023-03-23T16:34:31.000Z,64.48
2023-03-23T16:35:31.000Z,64.55
2023-03-23T16:35:31.000Z,64.55
2023-03-23T16:36:31.000Z,64.79
2023-03-23T16:36:31.000Z,64.79
2023-03-23T16:37:31.000Z,64.79
2023-03-23T16:37:31.000Z,64.79
2023-03-23T16:38:31.000Z,64.79
2023-03-23T16:39:31.000Z,64.89
2023-03-23T16:40:31.000Z,64.89
2023-03-23T16:41:31.000Z,64.99
2023-03-23T16:42:31.000Z,64.89
2023-03-23T16:43:31.000Z,64.99
2023-03-23T16:44:31.000Z,64.79
2023-03-23T16:45:31.000Z,64.89
2023-03-23T16:46:31.000Z,64.99
2023-03-23T16:47:31.000Z,64.89
2023-03-23T16:48:31.000Z,64.89
2023-03-23T16:49:31.000Z,64.99
2023-03-23T16:50:31.000Z,65.09
2023-03-23T16:51:31.000Z,64.58
2023-03-23T16:52:31.000Z,64.79
2023-03-23T16:53:31.000Z,64.92
2023-03-23T16:54:31.000Z,64.82
2023-03-23T16:55:31.000Z,64.92
2023-03-23T16:56:31.000Z,64.82
2023-03-23T16:57:31.000Z,64.72
2023-03-23T16:58:31.000Z,64.72
2023-03-23T16:59:31.000Z,64.82
2023-03-23T17:00:31.000Z,64.82
2023-03-23T17:01:31.000Z,64.82
2023-03-23T17:02:31.000Z,64.82
2023-03-23T17:03:31.000Z,64.72
2023-03-23T17:04:31.000Z,64.61
2023-03-23T17:05:31.000Z,64.51
2023-03-23T17:06:31.000Z,64.41
2023-03-23T17:07:31.000Z,64.41
2023-03-23T17:08:31.000Z,64.51
2023-03-23T17:09:31.000Z,64.51
2023-03-23T17:10:31.000Z,64.61
2023-03-23T17:11:31.000Z,64.61
2023-03-23T17:12:31.000Z,64.72
2023-03-23T17:13:31.000Z,64.82
2023-03-23T17:14:31.000Z,64.92
2023-03-23T17:15:31.000Z,65.05
2023-03-23T17:16:31.000Z,65.05
2023-03-23T17:17:31.000Z,65.25
2023-03-23T17:18:31.000Z,65.36
2023-03-23T17:19:31.000Z,65.45
2023-03-23T17:20:31.000Z,65.56
2023-03-23T17:21:31.000Z,65.45
2023-03-23T17:22:31.000Z,65.59
2023-03-23T17:23:31.000Z,65.45
2023-03-23T17:24:31.000Z,65.59
2023-03-23T17:25:31.000Z,65.69
2023-03-23T17:26:31.000Z,65.69
2023-03-23T17:27:31.000Z,65.89
2023-03-23T17:28:31.000Z,65.99
2023-03-23T17:29:31.000Z,66.09
2023-03-23T17:30:31.000Z,65.99
2023-03-23T17:31:31.000Z,65.99
2023-03-23T17:32:31.000Z,66.13
2023-03-23T17:33:31.000Z,66.13
2023-03-23T17:34:31.000Z,66.13
2023-03-23T17:35:31.000Z,66.23
2023-03-23T17:36:30.000Z,66.43
2023-03-23T17:37:30.000Z,66.33
2023-03-23T17:38:30.000Z,66.43
2023-03-23T17:39:30.000Z,66.43
2023-03-23T17:40:30.000Z,66.43
2023-03-23T17:41:30.000Z,66.53
2023-03-23T17:42:30.000Z,66.63
2023-03-23T17:43:30.000Z,66.86
2023-03-23T17:44:30.000Z,66.86
2023-03-23T17:45:30.000Z,66.86
2023-03-23T17:46:30.000Z,66.86
2023-03-23T17:47:30.000Z,66.97
2023-03-23T17:48:30.000Z,67.17
2023-03-23T17:49:30.000Z,67.47
2023-03-23T17:50:30.000Z,67.27
2023-03-23T17:51:30.000Z,67.27
2023-03-23T17:52:30.000Z,67.38
2023-03-23T17:53:30.000Z,67.27
2023-03-23T17:54:30.000Z,67.47
2023-03-23T17:55:30.000Z,67.47
2023-03-23T17:56:30.000Z,67.58
2023-03-23T17:57:30.000Z,67.47
2023-03-23T17:58:30.000Z,67.58
2023-03-23T17:59:30.000Z,67.68
2023-03-23T18:00:30.000Z,67.78
2023-03-23T18:01:30.000Z,67.98
2023-03-23T18:02:30.000Z,68.01
2023-03-23T18:03:30.000Z,68.19
2023-03-23T18:04:30.000Z,68.29
2023-03-23T18:05:30.000Z,68.42
2023-03-23T18:06:30.000Z,68.42
2023-03-23T18:07:30.000Z,68.52
2023-03-23T18:08:30.000Z,68.73
2023-03-23T18:09:30.000Z,68.62
2023-03-23T18:10:30.000Z,68.73
2023-03-23T18:11:30.000Z,68.73
2023-03-23T18:12:30.000Z,68.73
2023-03-23T18:13:30.000Z,68.73
2023-03-23T18:14:30.000Z,68.93
2023-03-23T18:15:30.000Z,68.93
2023-03-23T18:16:30.000Z,69.03
2023-03-23T18:17:30.000Z,69.03
2023-03-23T18:18:30.000Z,69.13
2023-03-23T18:18:30.000Z,69.13
2023-03-23T18:19:30.000Z,69.13
2023-03-23T18:19:30.000Z,69.13
2023-03-23T18:20:30.000Z,69.13
2023-03-23T18:20:30.000Z,69.13
2023-03-23T18:21:30.000Z,69.23
2023-03-23T18:21:30.000Z,69.23
2023-03-23T18:22:30.000Z,69.13
2023-03-23T18:22:30.000Z,69.13
2023-03-23T18:23:30.000Z,69.13
2023-03-23T18:24:30.000Z,69.23
2023-03-23T18:25:30.000Z,69.03
2023-03-23T18:26:30.000Z,69.13
2023-03-23T18:27:30.000Z,69.23
2023-03-23T18:28:30.000Z,69.23
2023-03-23T18:29:30.000Z,69.23
2023-03-23T18:30:30.000Z,69.23
2023-03-23T18:31:30.000Z,69.23
2023-03-23T18:32:30.000Z,69.13
2023-03-23T18:33:30.000Z,69.13
2023-03-23T18:34:30.000Z,69.13
2023-03-23T18:35:30.000Z,69.13
2023-03-23T18:36:30.000Z,69.23
2023-03-23T18:37:30.000Z,69.23
2023-03-23T18:38:30.000Z,69.23
2023-03-23T18:39:30.000Z,69.34
2023-03-23T18:40:30.000Z,69.23
2023-03-23T18:41:30.000Z,69.23
2023-03-23T18:42:30.000Z,69.13
2023-03-23T18:43:30.000Z,69.23
2023-03-23T18:44:30.000Z,69.26
2023-03-23T18:45:30.000Z,69.26
2023-03-23T18:46:30.000Z,69.37
2023-03-23T18:47:30.000Z,69.47
2023-03-23T18:48:30.000Z,69.47
2023-03-23T18:49:30.000Z,69.57
2023-03-23T18:50:30.000Z,69.67
2023-03-23T18:51:30.000Z,69.78
2023-03-23T18:52:30.000Z,69.87
2023-03-23T18:53:30.000Z,69.87
2023-03-23T18:54:30.000Z,69.98
2023-03-23T18:55:30.000Z,69.98
2023-03-23T18:56:30.000Z,69.78
2023-03-23T18:57:30.000Z,69.98
2023-03-23T18:58:30.000Z,69.87
2023-03-23T18:59:30.000Z,69.98
2023-03-23T19:00:30.000Z,69.98
2023-03-23T19:01:30.000Z,69.98
2023-03-23T19:02:30.000Z,69.98
2023-03-23T19:03:30.000Z,70.08
2023-03-23T19:04:30.000Z,69.98
2023-03-23T19:05:30.000Z,69.87
2023-03-23T19:06:30.000Z,69.98
2023-03-23T19:07:30.000Z,70.08
2023-03-23T19:08:30.000Z,70.18
2023-03-23T19:09:30.000Z,70.08
2023-03-23T19:10:30.000Z,70.08
2023-03-23T19:11:30.000Z,70.28
2023-03-23T19:12:30.000Z,70.28
2023-03-23T19:13:30.000Z,70.38
2023-03-23T19:14:30.000Z,70.42
2023-03-23T19:15:30.000Z,70.38
2023-03-23T19:16:30.000Z,70.38
2023-03-23T19:17:30.000Z,70.38
2023-03-23T19:18:29.000Z,70.59
2023-03-23T19:19:29.000Z,70.62
2023-03-23T19:20:29.000Z,70.62
2023-03-23T19:21:29.000Z,70.68
2023-03-23T19:22:29.000Z,70.72
2023-03-23T19:23:29.000Z,70.72
2023-03-23T19:23:29.000Z,70.72
2023-03-23T19:24:29.000Z,70.82
2023-03-23T19:24:29.000Z,70.82
2023-03-23T19:25:29.000Z,70.92
2023-03-23T19:25:29.000Z,70.92
2023-03-23T19:26:29.000Z,71.03
2023-03-23T19:26:29.000Z,71.03
2023-03-23T19:27:29.000Z,71.03
2023-03-23T19:27:29.000Z,71.03
2023-03-23T19:28:29.000Z,71.03
2023-03-23T19:29:29.000Z,71.12
2023-03-23T19:30:29.000Z,71.23
2023-03-23T19:31:29.000Z,71.33
2023-03-23T19:32:29.000Z,71.47
2023-03-23T19:33:29.000Z,71.57
2023-03-23T19:34:29.000Z,71.57
2023-03-23T19:35:29.000Z,71.57
2023-03-23T19:36:29.000Z,71.67
2023-03-23T19:37:29.000Z,71.77
2023-03-23T19:38:29.000Z,71.87
2023-03-23T19:39:29.000Z,71.97
2023-03-23T19:40:29.000Z,71.97
2023-03-23T19:41:29.000Z,72.08
2023-03-23T19:42:29.000Z,72.17
2023-03-23T19:43:29.000Z,72.31
2023-03-23T19:44:29.000Z,72.41
2023-03-23T19:45:29.000Z,72.72
2023-03-23T19:46:29.000Z,72.82
2023-03-23T19:47:29.000Z,72.92
2023-03-23T19:48:29.000Z,73.02
2023-03-23T19:49:29.000Z,73.02
2023-03-23T19:50:29.000Z,73.23
2023-03-23T19:51:29.000Z,73.23
2023-03-23T19:52:29.000Z,73.23
2023-03-23T19:53:29.000Z,73.23
2023-03-23T19:54:29.000Z,73.33
2023-03-23T19:55:29.000Z,73.54
2023-03-23T19:56:29.000Z,73.43
2023-03-23T19:57:29.000Z,73.54
2023-03-23T19:58:29.000Z,73.54
2023-03-23T19:59:29.000Z,73.63
2023-03-23T20:00:29.000Z,73.63
2023-03-23T20:01:29.000Z,73.74
2023-03-23T20:02:29.000Z,73.84
2023-03-23T20:03:29.000Z,73.74
2023-03-23T20:04:29.000Z,73.63
2023-03-23T20:05:29.000Z,73.74
2023-03-23T20:06:29.000Z,73.84
2023-03-23T20:07:29.000Z,73.94
2023-03-23T20:08:29.000Z,74.08
2023-03-23T20:09:29.000Z,74.18
2023-03-23T20:10:29.000Z,74.18
2023-03-23T20:11:29.000Z,74.28
2023-03-23T20:12:29.000Z,74.38
2023-03-23T20:13:29.000Z,74.38
2023-03-23T20:14:29.000Z,74.48
2023-03-23T20:15:29.000Z,74.58
2023-03-23T20:16:29.000Z,74.69
2023-03-23T20:17:29.000Z,74.69
2023-03-23T20:18:29.000Z,74.69
2023-03-23T20:19:29.000Z,74.69
2023-03-23T20:20:29.000Z,74.79
2023-03-23T20:21:29.000Z,74.79
2023-03-23T20:22:29.000Z,74.89
2023-03-23T20:23:29.000Z,75.02
2023-03-23T20:24:29.000Z,75.13
2023-03-23T20:25:29.000Z,75.13
2023-03-23T20:26:29.000Z,75.23
2023-03-23T20:27:29.000Z,75.33
2023-03-23T20:28:29.000Z,75.43
2023-03-23T20:29:29.000Z,75.43
2023-03-23T20:30:29.000Z,75.54
2023-03-23T20:31:29.000Z,75.54
2023-03-23T20:32:29.000Z,75.64
2023-03-23T20:33:29.000Z,75.64
2023-03-23T20:34:29.000Z,75.84
2023-03-23T20:35:29.000Z,76.04
2023-03-23T20:36:29.000Z,76.15
2023-03-23T20:37:29.000Z,76.15
2023-03-23T20:38:29.000Z,76.25
2023-03-23T20:39:29.000Z,76.39
2023-03-23T20:40:29.000Z,76.39
2023-03-23T20:41:29.000Z,76.39
2023-03-23T20:42:29.000Z,76.39
2023-03-23T20:43:29.000Z,76.49
2023-03-23T20:44:29.000Z,76.49
2023-03-23T20:45:29.000Z,76.79
2023-03-23T20:46:29.000Z,76.79
2023-03-23T20:47:29.000Z,76.90
2023-03-23T20:48:29.000Z,77.00
2023-03-23T20:49:29.000Z,77.10
2023-03-23T20:50:29.000Z,77.30
2023-03-23T20:51:29.000Z,77.30
2023-03-23T20:52:29.000Z,77.40
2023-03-23T20:53:29.000Z,77.51
2023-03-23T20:54:29.000Z,77.61
2023-03-23T20:55:29.000Z,77.71
2023-03-23T20:56:29.000Z,77.61
2023-03-23T20:57:29.000Z,77.81
2023-03-23T20:58:29.000Z,77.91
2023-03-23T20:59:29.000Z,77.81
2023-03-23T21:00:29.000Z,77.71
2023-03-23T21:01:28.000Z,77.71
2023-03-23T21:02:28.000Z,77.61
2023-03-23T21:03:28.000Z,77.64
2023-03-23T21:04:28.000Z,77.64
2023-03-23T21:05:28.000Z,77.64
2023-03-23T21:06:28.000Z,77.75
2023-03-23T21:07:28.000Z,77.75
2023-03-23T21:08:28.000Z,77.64
2023-03-23T21:09:28.000Z,77.64
2023-03-23T21:10:28.000Z,77.75
2023-03-23T21:11:28.000Z,77.75
2023-03-23T21:12:28.000Z,77.85
2023-03-23T21:13:28.000Z,77.78
2023-03-23T21:14:28.000Z,77.98
2023-03-23T21:15:28.000Z,78.09
2023-03-23T21:16:28.000Z,78.19
2023-03-23T21:17:28.000Z,78.09
2023-03-23T21:18:28.000Z,78.09
2023-03-23T21:19:28.000Z,78.50
2023-03-23T21:20:28.000Z,78.60
2023-03-23T21:21:28.000Z,78.70
2023-03-23T21:22:28.000Z,78.70
2023-03-23T21:23:28.000Z,78.91
2023-03-23T21:24:28.000Z,79.00
2023-03-23T21:25:28.000Z,79.00
2023-03-23T21:26:28.000Z,79.11
2023-03-23T21:27:28.000Z,79.21
2023-03-23T21:28:28.000Z,79.21
2023-03-23T21:29:28.000Z,79.41
2023-03-23T21:30:28.000Z,79.41
2023-03-23T21:31:28.000Z,79.62
2023-03-23T21:32:28.000Z,79.62
2023-03-23T21:33:28.000Z,79.52
2023-03-23T21:34:28.000Z,79.62
2023-03-23T21:35:28.000Z,79.62
2023-03-23T21:36:28.000Z,79.72
2023-03-23T21:37:28.000Z,79.72
2023-03-23T21:38:28.000Z,79.72
2023-03-23T21:39:28.000Z,79.82
2023-03-23T21:40:28.000Z,79.93
2023-03-23T21:41:28.000Z,80.13
2023-03-23T21:42:28.000Z,80.13
2023-03-23T21:43:28.000Z,80.23
2023-03-23T21:44:28.000Z,80.13
2023-03-23T21:45:28.000Z,80.02
2023-03-23T21:46:28.000Z,80.23
2023-03-23T21:47:28.000Z,80.13
2023-03-23T21:48:28.000Z,80.02
2023-03-23T21:49:28.000Z,80.13
2023-03-23T21:50:28.000Z,80.23
2023-03-23T21:51:28.000Z,80.33
2023-03-23T21:52:28.000Z,80.23
2023-03-23T21:53:28.000Z,80.19
2023-03-23T21:54:28.000Z,80.19
2023-03-23T21:55:28.000Z,80.29
2023-03-23T21:56:28.000Z,80.29
2023-03-23T21:57:28.000Z,80.29
2023-03-23T21:58:28.000Z,80.19
2023-03-23T21:59:28.000Z,80.29
2023-03-23T22:00:28.000Z,80.43
2023-03-23T22:01:28.000Z,80.40
2023-03-23T22:02:28.000Z,80.29
2023-03-23T22:03:28.000Z,80.40
2023-03-23T22:04:28.000Z,80.29
2023-03-23T22:05:28.000Z,80.29
2023-03-23T22:06:28.000Z,80.29
2023-03-23T22:07:28.000Z,80.29
2023-03-23T22:08:28.000Z,80.40
2023-03-23T22:09:28.000Z,80.43
2023-03-23T22:10:28.000Z,80.43
2023-03-23T22:11:28.000Z,80.43
2023-03-23T22:12:28.000Z,80.43
2023-03-23T22:13:28.000Z,80.54
2023-03-23T22:14:28.000Z,80.54
2023-03-23T22:15:28.000Z,80.54
2023-03-23T22:16:28.000Z,80.64
2023-03-23T22:17:28.000Z,80.64
2023-03-23T22:18:28.000Z,80.64
2023-03-23T22:19:28.000Z,80.74
2023-03-23T22:20:28.000Z,80.74
2023-03-23T22:21:28.000Z,80.94
2023-03-23T22:22:28.000Z,80.94
2023-03-23T22:23:28.000Z,81.04
2023-03-23T22:24:28.000Z,80.94
2023-03-23T22:25:28.000Z,81.18
2023-03-23T22:26:28.000Z,81.18
2023-03-23T22:27:28.000Z,81.29
2023-03-23T22:28:28.000Z,81.29
2023-03-23T22:29:28.000Z,81.29
2023-03-23T22:30:28.000Z,81.39
2023-03-23T22:31:28.000Z,81.49
2023-03-23T22:32:28.000Z,81.39
2023-03-23T22:33:28.000Z,81.49
2023-03-23T22:34:28.000Z,81.49
2023-03-23T22:35:28.000Z,81.49
2023-03-23T22:36:28.000Z,81.59
2023-03-23T22:37:28.000Z,81.59
2023-03-23T22:38:28.000Z,81.59
2023-03-23T22:39:28.000Z,81.59
2023-03-23T22:40:28.000Z,81.59
2023-03-23T22:41:28.000Z,81.59
2023-03-23T22:42:28.000Z,81.59
2023-03-23T22:43:27.000Z,81.59
2023-03-23T22:44:27.000Z,81.59
2023-03-23T22:45:27.000Z,81.70
2023-03-23T22:46:27.000Z,81.59
2023-03-23T22:47:27.000Z,81.39
2023-03-23T22:48:27.000Z,81.39
2023-03-23T22:49:27.000Z,81.29
2023-03-23T22:50:27.000Z,81.29
2023-03-23T22:51:27.000Z,81.18
2023-03-23T22:52:27.000Z,81.29
2023-03-23T22:53:27.000Z,81.39
2023-03-23T22:54:27.000Z,81.39
2023-03-23T22:55:27.000Z,81.15
2023-03-23T22:56:27.000Z,81.15
2023-03-23T22:57:27.000Z,81.04
2023-03-23T22:58:27.000Z,80.94
2023-03-23T22:59:27.000Z,80.84
2023-03-23T23:00:27.000Z,80.84
2023-03-23T23:01:27.000Z,80.74
2023-03-23T23:02:27.000Z,80.74
2023-03-23T23:03:27.000Z,80.54
2023-03-23T23:04:27.000Z,80.64
2023-03-23T23:05:27.000Z,80.54
2023-03-23T23:06:27.000Z,80.64
2023-03-23T23:07:27.000Z,80.74
2023-03-23T23:08:27.000Z,80.64
2023-03-23T23:09:27.000Z,80.64
2023-03-23T23:10:27.000Z,80.64
2023-03-23T23:11:27.000Z,80.54
2023-03-23T23:12:27.000Z,80.43
2023-03-23T23:13:27.000Z,80.43
2023-03-23T23:14:27.000Z,80.57
2023-03-23T23:15:27.000Z,80.54
2023-03-23T23:16:27.000Z,80.68
2023-03-23T23:17:27.000Z,80.68
2023-03-23T23:18:27.000Z,80.68
2023-03-23T23:19:27.000Z,80.78
2023-03-23T23:20:27.000Z,80.78
2023-03-23T23:21:27.000Z,80.78
2023-03-23T23:22:27.000Z,80.88
2023-03-23T23:23:27.000Z,80.98
2023-03-23T23:24:27.000Z,81.09
2023-03-23T23:25:27.000Z,81.18
2023-03-23T23:26:27.000Z,81.29
2023-03-23T23:27:27.000Z,81.39
2023-03-23T23:28:27.000Z,81.29
2023-03-23T23:29:27.000Z,81.49
2023-03-23T23:30:27.000Z,81.39
2023-03-23T23:31:27.000Z,81.59
2023-03-23T23:32:27.000Z,81.59
2023-03-23T23:33:27.000Z,81.59
2023-03-23T23:34:27.000Z,81.59
2023-03-23T23:35:27.000Z,81.49
2023-03-23T23:36:27.000Z,81.70
2023-03-23T23:37:27.000Z,81.49
2023-03-23T23:38:27.000Z,81.59
2023-03-23T23:39:27.000Z,81.59
2023-03-23T23:40:27.000Z,81.59
2023-03-23T23:41:27.000Z,81.59
2023-03-23T23:42:27.000Z,81.59
2023-03-23T23:43:27.000Z,81.59
2023-03-23T23:44:27.000Z,81.59
2023-03-23T23:45:27.000Z,81.70
2023-03-23T23:46:27.000Z,81.70
2023-03-23T23:47:27.000Z,81.70
2023-03-23T23:48:27.000Z,81.80
2023-03-23T23:49:27.000Z,81.80
2023-03-23T23:50:27.000Z,81.90
2023-03-23T23:51:27.000Z,81.90
2023-03-23T23:52:27.000Z,81.90
2023-03-23T23:53:27.000Z,81.80
2023-03-23T23:54:27.000Z,81.80
2023-03-23T23:55:27.000Z,81.70
2023-03-23T23:56:27.000Z,81.70
2023-03-23T23:57:27.000Z,81.70
2023-03-23T23:58:27.000Z,81.70
2023-03-23T23:59:27.000Z,81.70
